sensor_id;sensor_type;location;lat;lon;timestamp;pressure;altitude;pressure_sealevel;temperature;humidity
47785;BME280;35233;55.686;37.848;2023-07-20T00:01:23;98390.88;;;17.41;58.99
47785;BME280;35233;55.686;37.848;2023-07-20T00:03:48;98394.03;;;17.35;58.87
47785;BME280;35233;55.686;37.848;2023-07-20T00:06:23;98397.16;;;17.29;58.88
47785;BME280;35233;55.686;37.848;2023-07-20T00:08:49;98396.81;;;17.33;58.98
47785;BME280;35233;55.686;37.848;2023-07-20T00:11:14;98401.03;;;17.25;59.03
47785;BME280;35233;55.686;37.848;2023-07-20T00:13:40;98394.88;;;17.35;58.52
47785;BME280;35233;55.686;37.848;2023-07-20T00:16:06;98416.69;;;17.29;58.72
47785;BME280;35233;55.686;37.848;2023-07-20T00:18:31;98409.66;;;17.28;58.84
47785;BME280;35233;55.686;37.848;2023-07-20T00:20:57;98403.72;;;17.36;58.44
47785;BME280;35233;55.686;37.848;2023-07-20T00:23:25;98416.09;;;17.26;58.79
47785;BME280;35233;55.686;37.848;2023-07-20T00:25:50;98406.63;;;17.33;58.98
47785;BME280;35233;55.686;37.848;2023-07-20T00:28:16;98412.81;;;17.22;59.10
47785;BME280;35233;55.686;37.848;2023-07-20T00:30:42;98415.72;;;17.30;59.37
47785;BME280;35233;55.686;37.848;2023-07-20T00:33:11;98416.59;;;17.31;58.69
47785;BME280;35233;55.686;37.848;2023-07-20T00:35:40;98410.56;;;17.40;58.33
47785;BME280;35233;55.686;37.848;2023-07-20T00:38:05;98415.25;;;17.36;58.86
47785;BME280;35233;55.686;37.848;2023-07-20T00:40:38;98427.28;;;17.31;58.68
47785;BME280;35233;55.686;37.848;2023-07-20T00:43:03;98408.31;;;17.23;58.69
47785;BME280;35233;55.686;37.848;2023-07-20T00:45:29;98426.28;;;17.32;58.63
47785;BME280;35233;55.686;37.848;2023-07-20T00:47:56;98417.63;;;17.17;58.99
47785;BME280;35233;55.686;37.848;2023-07-20T00:50:24;98425.88;;;17.14;59.38
47785;BME280;35233;55.686;37.848;2023-07-20T00:52:49;98415.75;;;17.06;58.85
47785;BME280;35233;55.686;37.848;2023-07-20T00:55:15;98417.84;;;17.14;58.97
47785;BME280;35233;55.686;37.848;2023-07-20T00:57:41;98410.03;;;17.00;59.56
47785;BME280;35233;55.686;37.848;2023-07-20T01:00:07;98421.44;;;17.02;59.26
47785;BME280;35233;55.686;37.848;2023-07-20T01:02:33;98426.19;;;17.09;59.72
47785;BME280;35233;55.686;37.848;2023-07-20T01:04:58;98420.16;;;17.18;59.19
47785;BME280;35233;55.686;37.848;2023-07-20T01:07:35;98422.78;;;17.07;59.49
47785;BME280;35233;55.686;37.848;2023-07-20T01:10:13;98424.97;;;17.02;59.48
47785;BME280;35233;55.686;37.848;2023-07-20T01:12:48;98431.66;;;17.08;59.58
47785;BME280;35233;55.686;37.848;2023-07-20T01:15:15;98425.50;;;17.18;59.00
47785;BME280;35233;55.686;37.848;2023-07-20T01:17:41;98439.59;;;17.20;58.94
47785;BME280;35233;55.686;37.848;2023-07-20T01:20:08;98435.78;;;17.12;59.85
47785;BME280;35233;55.686;37.848;2023-07-20T01:30:55;98430.69;;;17.09;59.45
47785;BME280;35233;55.686;37.848;2023-07-20T01:33:24;98417.22;;;16.86;59.87
47785;BME280;35233;55.686;37.848;2023-07-20T01:36:01;98433.19;;;16.99;59.51
47785;BME280;35233;55.686;37.848;2023-07-20T01:38:28;98421.94;;;17.31;58.65
47785;BME280;35233;55.686;37.848;2023-07-20T01:40:54;98426.78;;;17.02;59.80
47785;BME280;35233;55.686;37.848;2023-07-20T01:43:21;98429.59;;;17.11;59.44
47785;BME280;35233;55.686;37.848;2023-07-20T01:45:46;98432.97;;;17.02;60.05
47785;BME280;35233;55.686;37.848;2023-07-20T01:48:12;98421.78;;;16.97;59.58
47785;BME280;35233;55.686;37.848;2023-07-20T01:50:38;98425.22;;;17.10;59.35
47785;BME280;35233;55.686;37.848;2023-07-20T01:53:03;98433.59;;;17.06;59.90
47785;BME280;35233;55.686;37.848;2023-07-20T01:55:29;98440.50;;;17.08;59.45
47785;BME280;35233;55.686;37.848;2023-07-20T01:57:55;98430.53;;;16.99;59.53
47785;BME280;35233;55.686;37.848;2023-07-20T02:00:21;98432.56;;;16.95;59.65
47785;BME280;35233;55.686;37.848;2023-07-20T02:02:49;98438.63;;;17.22;59.41
47785;BME280;35233;55.686;37.848;2023-07-20T02:05:15;98419.03;;;16.86;60.13
47785;BME280;35233;55.686;37.848;2023-07-20T02:07:41;98426.94;;;17.11;59.36
47785;BME280;35233;55.686;37.848;2023-07-20T02:10:07;98417.28;;;16.97;60.20
47785;BME280;35233;55.686;37.848;2023-07-20T02:12:32;98432.56;;;16.95;60.58
47785;BME280;35233;55.686;37.848;2023-07-20T02:14:58;98433.69;;;17.04;59.66
47785;BME280;35233;55.686;37.848;2023-07-20T02:17:23;98431.19;;;17.14;59.84
47785;BME280;35233;55.686;37.848;2023-07-20T02:19:52;98423.19;;;17.14;59.54
47785;BME280;35233;55.686;37.848;2023-07-20T02:22:20;98431.53;;;17.09;59.64
47785;BME280;35233;55.686;37.848;2023-07-20T02:24:46;98425.44;;;17.07;59.85
47785;BME280;35233;55.686;37.848;2023-07-20T02:27:11;98433.91;;;17.01;60.22
47785;BME280;35233;55.686;37.848;2023-07-20T02:29:37;98436.34;;;17.04;60.24
47785;BME280;35233;55.686;37.848;2023-07-20T02:32:03;98437.78;;;16.97;59.92
47785;BME280;35233;55.686;37.848;2023-07-20T02:34:28;98436.19;;;16.94;60.66
47785;BME280;35233;55.686;37.848;2023-07-20T02:36:54;98444.31;;;16.93;60.45
47785;BME280;35233;55.686;37.848;2023-07-20T02:39:22;98443.34;;;16.94;60.70
47785;BME280;35233;55.686;37.848;2023-07-20T02:41:47;98440.38;;;17.10;60.32
47785;BME280;35233;55.686;37.848;2023-07-20T02:44:15;98448.63;;;17.07;60.30
47785;BME280;35233;55.686;37.848;2023-07-20T02:46:40;98455.22;;;17.14;59.51
47785;BME280;35233;55.686;37.848;2023-07-20T02:49:06;98454.63;;;16.97;60.03
47785;BME280;35233;55.686;37.848;2023-07-20T02:51:31;98451.50;;;17.98;59.21
47785;BME280;35233;55.686;37.848;2023-07-20T02:53:57;98444.22;;;18.23;58.42
47785;BME280;35233;55.686;37.848;2023-07-20T02:56:22;98446.41;;;18.18;58.90
47785;BME280;35233;55.686;37.848;2023-07-20T02:58:48;98443.47;;;18.21;58.51
47785;BME280;35233;55.686;37.848;2023-07-20T03:01:14;98446.66;;;18.26;59.21
47785;BME280;35233;55.686;37.848;2023-07-20T03:03:41;98452.59;;;18.29;58.86
47785;BME280;35233;55.686;37.848;2023-07-20T03:06:15;98452.25;;;18.34;58.45
47785;BME280;35233;55.686;37.848;2023-07-20T03:08:44;98457.09;;;18.40;58.15
47785;BME280;35233;55.686;37.848;2023-07-20T03:11:10;98456.63;;;18.46;58.14
47785;BME280;35233;55.686;37.848;2023-07-20T03:13:36;98458.94;;;18.51;58.08
47785;BME280;35233;55.686;37.848;2023-07-20T03:16:01;98456.25;;;18.51;58.37
47785;BME280;35233;55.686;37.848;2023-07-20T03:18:27;98465.72;;;18.55;58.20
47785;BME280;35233;55.686;37.848;2023-07-20T03:20:52;98459.53;;;18.54;58.38
47785;BME280;35233;55.686;37.848;2023-07-20T03:23:18;98473.16;;;18.63;58.13
47785;BME280;35233;55.686;37.848;2023-07-20T03:25:43;98469.13;;;18.68;58.01
47785;BME280;35233;55.686;37.848;2023-07-20T03:28:09;98461.84;;;18.70;58.33
47785;BME280;35233;55.686;37.848;2023-07-20T03:30:34;98457.34;;;18.71;58.18
47785;BME280;35233;55.686;37.848;2023-07-20T03:33:00;98460.00;;;18.71;58.38
47785;BME280;35233;55.686;37.848;2023-07-20T03:35:25;98467.69;;;18.75;57.98
47785;BME280;35233;55.686;37.848;2023-07-20T03:37:51;98465.38;;;18.82;58.12
47785;BME280;35233;55.686;37.848;2023-07-20T03:40:17;98462.69;;;18.82;58.62
47785;BME280;35233;55.686;37.848;2023-07-20T03:42:42;98464.13;;;18.86;58.05
47785;BME280;35233;55.686;37.848;2023-07-20T03:45:08;98458.53;;;18.89;57.79
47785;BME280;35233;55.686;37.848;2023-07-20T03:47:34;98464.38;;;18.94;57.94
47785;BME280;35233;55.686;37.848;2023-07-20T03:49:59;98462.28;;;18.98;57.67
47785;BME280;35233;55.686;37.848;2023-07-20T03:52:25;98464.59;;;19.03;57.59
47785;BME280;35233;55.686;37.848;2023-07-20T03:54:50;98467.13;;;19.04;57.87
47785;BME280;35233;55.686;37.848;2023-07-20T03:57:21;98472.38;;;19.06;57.75
47785;BME280;35233;55.686;37.848;2023-07-20T03:59:48;98477.34;;;19.10;57.81
47785;BME280;35233;55.686;37.848;2023-07-20T04:02:13;98484.00;;;19.16;57.83
47785;BME280;35233;55.686;37.848;2023-07-20T04:04:40;98468.09;;;19.14;57.52
47785;BME280;35233;55.686;37.848;2023-07-20T04:07:05;98469.28;;;19.21;57.56
47785;BME280;35233;55.686;37.848;2023-07-20T04:09:32;98477.53;;;19.30;57.50
47785;BME280;35233;55.686;37.848;2023-07-20T04:11:58;98464.13;;;19.30;57.19
47785;BME280;35233;55.686;37.848;2023-07-20T04:14:23;98483.19;;;19.48;56.67
47785;BME280;35233;55.686;37.848;2023-07-20T04:16:49;98475.69;;;19.62;56.65
47785;BME280;35233;55.686;37.848;2023-07-20T04:19:17;98469.84;;;19.68;56.15
47785;BME280;35233;55.686;37.848;2023-07-20T04:21:43;98464.09;;;19.73;56.12
47785;BME280;35233;55.686;37.848;2023-07-20T04:24:08;98461.16;;;19.76;56.03
47785;BME280;35233;55.686;37.848;2023-07-20T04:26:34;98452.66;;;19.71;56.15
47785;BME280;35233;55.686;37.848;2023-07-20T04:29:00;98473.75;;;19.85;56.02
47785;BME280;35233;55.686;37.848;2023-07-20T04:31:26;98473.50;;;19.88;55.64
47785;BME280;35233;55.686;37.848;2023-07-20T04:33:51;98482.00;;;19.94;56.30
47785;BME280;35233;55.686;37.848;2023-07-20T04:36:17;98474.22;;;19.90;55.65
47785;BME280;35233;55.686;37.848;2023-07-20T04:38:47;98469.81;;;19.89;56.56
47785;BME280;35233;55.686;37.848;2023-07-20T04:41:12;98475.91;;;19.92;55.65
47785;BME280;35233;55.686;37.848;2023-07-20T04:43:42;98475.44;;;19.86;56.10
47785;BME280;35233;55.686;37.848;2023-07-20T04:46:11;98482.38;;;19.89;56.13
47785;BME280;35233;55.686;37.848;2023-07-20T04:48:36;98484.53;;;19.95;56.00
47785;BME280;35233;55.686;37.848;2023-07-20T04:51:03;98487.03;;;20.08;55.48
47785;BME280;35233;55.686;37.848;2023-07-20T04:53:28;98472.53;;;20.10;55.70
47785;BME280;35233;55.686;37.848;2023-07-20T04:55:54;98479.31;;;20.15;55.09
47785;BME280;35233;55.686;37.848;2023-07-20T04:58:21;98480.88;;;20.17;55.95
47785;BME280;35233;55.686;37.848;2023-07-20T05:00:48;98475.91;;;20.12;56.35
47785;BME280;35233;55.686;37.848;2023-07-20T05:03:14;98482.38;;;20.10;55.85
47785;BME280;35233;55.686;37.848;2023-07-20T05:05:39;98476.63;;;20.15;55.98
47785;BME280;35233;55.686;37.848;2023-07-20T05:08:05;98481.25;;;20.12;56.27
47785;BME280;35233;55.686;37.848;2023-07-20T05:10:30;98481.00;;;20.16;55.82
47785;BME280;35233;55.686;37.848;2023-07-20T05:12:58;98478.91;;;20.19;56.33
47785;BME280;35233;55.686;37.848;2023-07-20T05:15:23;98483.41;;;20.19;56.56
47785;BME280;35233;55.686;37.848;2023-07-20T05:17:49;98488.66;;;20.20;56.77
47785;BME280;35233;55.686;37.848;2023-07-20T05:20:14;98477.81;;;20.22;57.03
47785;BME280;35233;55.686;37.848;2023-07-20T05:22:40;98478.13;;;20.28;56.00
47785;BME280;35233;55.686;37.848;2023-07-20T05:25:10;98478.84;;;20.30;55.87
47785;BME280;35233;55.686;37.848;2023-07-20T05:27:37;98474.31;;;20.31;56.44
47785;BME280;35233;55.686;37.848;2023-07-20T05:30:04;98480.25;;;20.34;56.05
47785;BME280;35233;55.686;37.848;2023-07-20T05:32:29;98483.66;;;20.37;56.45
47785;BME280;35233;55.686;37.848;2023-07-20T05:34:55;98473.06;;;20.35;56.32
47785;BME280;35233;55.686;37.848;2023-07-20T05:37:21;98483.78;;;20.35;55.74
47785;BME280;35233;55.686;37.848;2023-07-20T05:39:46;98466.84;;;20.34;56.38
47785;BME280;35233;55.686;37.848;2023-07-20T05:42:12;98491.75;;;20.46;56.66
47785;BME280;35233;55.686;37.848;2023-07-20T05:44:37;98481.03;;;20.46;56.13
47785;BME280;35233;55.686;37.848;2023-07-20T05:47:03;98492.47;;;20.48;56.07
47785;BME280;35233;55.686;37.848;2023-07-20T05:49:29;98487.69;;;20.52;55.93
47785;BME280;35233;55.686;37.848;2023-07-20T05:51:56;98473.41;;;20.51;55.88
47785;BME280;35233;55.686;37.848;2023-07-20T05:54:24;98484.47;;;20.58;55.54
47785;BME280;35233;55.686;37.848;2023-07-20T05:56:49;98485.47;;;20.57;55.89
47785;BME280;35233;55.686;37.848;2023-07-20T05:59:15;98486.06;;;20.61;55.30
47785;BME280;35233;55.686;37.848;2023-07-20T06:01:40;98492.84;;;20.65;55.95
47785;BME280;35233;55.686;37.848;2023-07-20T06:04:06;98488.47;;;20.64;56.15
47785;BME280;35233;55.686;37.848;2023-07-20T06:06:32;98478.72;;;20.63;55.98
47785;BME280;35233;55.686;37.848;2023-07-20T06:08:59;98492.84;;;20.65;55.13
47785;BME280;35233;55.686;37.848;2023-07-20T06:11:29;98488.75;;;20.61;55.47
47785;BME280;35233;55.686;37.848;2023-07-20T06:13:56;98496.13;;;20.68;55.05
47785;BME280;35233;55.686;37.848;2023-07-20T06:16:21;98498.38;;;20.73;55.68
47785;BME280;35233;55.686;37.848;2023-07-20T06:18:47;98502.19;;;20.70;55.06
47785;BME280;35233;55.686;37.848;2023-07-20T06:21:12;98497.25;;;20.75;54.90
47785;BME280;35233;55.686;37.848;2023-07-20T06:23:38;98498.69;;;20.79;55.61
47785;BME280;35233;55.686;37.848;2023-07-20T06:26:06;98493.19;;;20.81;55.36
47785;BME280;35233;55.686;37.848;2023-07-20T06:28:31;98497.16;;;20.87;54.61
47785;BME280;35233;55.686;37.848;2023-07-20T06:31:01;98497.28;;;20.85;55.09
47785;BME280;35233;55.686;37.848;2023-07-20T06:33:27;98499.69;;;20.88;54.91
47785;BME280;35233;55.686;37.848;2023-07-20T06:35:52;98499.84;;;20.87;54.47
47785;BME280;35233;55.686;37.848;2023-07-20T06:38:18;98494.03;;;20.91;54.46
47785;BME280;35233;55.686;37.848;2023-07-20T06:40:46;98506.34;;;20.94;54.62
47785;BME280;35233;55.686;37.848;2023-07-20T06:43:11;98494.38;;;20.98;54.99
47785;BME280;35233;55.686;37.848;2023-07-20T06:45:37;98500.59;;;20.98;54.50
47785;BME280;35233;55.686;37.848;2023-07-20T06:48:02;98508.22;;;21.03;54.32
47785;BME280;35233;55.686;37.848;2023-07-20T06:50:29;98505.28;;;21.06;54.54
47785;BME280;35233;55.686;37.848;2023-07-20T06:52:54;98508.53;;;21.10;54.94
47785;BME280;35233;55.686;37.848;2023-07-20T06:55:20;98507.97;;;21.16;54.47
47785;BME280;35233;55.686;37.848;2023-07-20T06:57:46;98495.66;;;21.13;54.88
47785;BME280;35233;55.686;37.848;2023-07-20T07:00:12;98506.13;;;21.16;54.32
47785;BME280;35233;55.686;37.848;2023-07-20T07:02:38;98507.13;;;21.15;54.65
47785;BME280;35233;55.686;37.848;2023-07-20T07:05:04;98505.28;;;21.25;55.00
47785;BME280;35233;55.686;37.848;2023-07-20T07:07:29;98515.91;;;21.27;54.47
47785;BME280;35233;55.686;37.848;2023-07-20T07:09:55;98507.69;;;21.29;54.28
47785;BME280;35233;55.686;37.848;2023-07-20T07:12:20;98511.38;;;21.28;54.73
47785;BME280;35233;55.686;37.848;2023-07-20T07:14:46;98512.50;;;21.35;55.02
47785;BME280;35233;55.686;37.848;2023-07-20T07:17:11;98518.50;;;21.38;54.52
47785;BME280;35233;55.686;37.848;2023-07-20T07:19:36;98511.13;;;21.40;54.95
47785;BME280;35233;55.686;37.848;2023-07-20T07:22:07;98513.69;;;21.42;54.49
47785;BME280;35233;55.686;37.848;2023-07-20T07:24:34;98498.13;;;21.36;54.92
47785;BME280;35233;55.686;37.848;2023-07-20T07:27:00;98511.44;;;21.47;54.80
47785;BME280;35233;55.686;37.848;2023-07-20T07:29:26;98502.94;;;21.52;54.48
47785;BME280;35233;55.686;37.848;2023-07-20T07:31:52;98514.13;;;21.57;54.68
47785;BME280;35233;55.686;37.848;2023-07-20T07:34:17;98515.69;;;21.59;54.83
47785;BME280;35233;55.686;37.848;2023-07-20T07:36:43;98513.28;;;21.56;54.60
47785;BME280;35233;55.686;37.848;2023-07-20T07:39:09;98511.44;;;21.66;54.08
47785;BME280;35233;55.686;37.848;2023-07-20T07:41:35;98522.03;;;21.78;54.24
47785;BME280;35233;55.686;37.848;2023-07-20T07:44:00;98515.69;;;21.59;54.44
47785;BME280;35233;55.686;37.848;2023-07-20T07:46:26;98510.88;;;21.73;54.74
47785;BME280;35233;55.686;37.848;2023-07-20T07:48:51;98507.50;;;21.70;54.19
47785;BME280;35233;55.686;37.848;2023-07-20T07:51:17;98507.75;;;21.77;54.29
47785;BME280;35233;55.686;37.848;2023-07-20T07:53:42;98519.94;;;21.72;54.09
47785;BME280;35233;55.686;37.848;2023-07-20T07:56:09;98505.22;;;21.56;54.47
47785;BME280;35233;55.686;37.848;2023-07-20T07:58:34;98499.84;;;21.66;54.11
47785;BME280;35233;55.686;37.848;2023-07-20T08:01:00;98509.88;;;21.83;54.35
47785;BME280;35233;55.686;37.848;2023-07-20T08:03:26;98515.09;;;21.95;53.90
47785;BME280;35233;55.686;37.848;2023-07-20T08:05:54;98502.94;;;22.00;53.83
47785;BME280;35233;55.686;37.848;2023-07-20T08:08:20;98512.25;;;22.06;53.33
47785;BME280;35233;55.686;37.848;2023-07-20T08:10:46;98508.56;;;22.17;53.47
47785;BME280;35233;55.686;37.848;2023-07-20T08:13:12;98506.16;;;22.13;53.89
47785;BME280;35233;55.686;37.848;2023-07-20T08:15:41;98520.34;;;22.06;54.03
47785;BME280;35233;55.686;37.848;2023-07-20T08:18:07;98524.84;;;22.25;53.92
47785;BME280;35233;55.686;37.848;2023-07-20T08:20:33;98519.47;;;22.34;53.77
47785;BME280;35233;55.686;37.848;2023-07-20T08:23:01;98512.59;;;22.50;53.25
47785;BME280;35233;55.686;37.848;2023-07-20T08:25:26;98529.19;;;22.45;53.21
47785;BME280;35233;55.686;37.848;2023-07-20T08:27:52;98525.06;;;22.51;53.41
47785;BME280;35233;55.686;37.848;2023-07-20T08:30:17;98525.06;;;22.60;52.57
47785;BME280;35233;55.686;37.848;2023-07-20T08:32:43;98524.34;;;22.58;53.05
47785;BME280;35233;55.686;37.848;2023-07-20T08:35:08;98525.34;;;22.48;53.00
47785;BME280;35233;55.686;37.848;2023-07-20T08:37:34;98536.41;;;22.54;53.33
47785;BME280;35233;55.686;37.848;2023-07-20T08:40:00;98526.72;;;22.62;53.06
47785;BME280;35233;55.686;37.848;2023-07-20T08:42:26;98533.50;;;22.66;52.95
47785;BME280;35233;55.686;37.848;2023-07-20T08:44:53;98520.63;;;22.69;53.05
47785;BME280;35233;55.686;37.848;2023-07-20T08:47:20;98534.63;;;22.73;52.72
47785;BME280;35233;55.686;37.848;2023-07-20T08:49:50;98521.75;;;22.67;53.11
47785;BME280;35233;55.686;37.848;2023-07-20T08:52:16;98516.41;;;22.57;53.34
47785;BME280;35233;55.686;37.848;2023-07-20T08:54:41;98521.47;;;22.60;52.97
47785;BME280;35233;55.686;37.848;2023-07-20T08:57:08;98519.44;;;22.81;52.70
47785;BME280;35233;55.686;37.848;2023-07-20T08:59:36;98491.50;;;22.82;52.50
47785;BME280;35233;55.686;37.848;2023-07-20T09:02:04;98517.22;;;23.04;52.62
47785;BME280;35233;55.686;37.848;2023-07-20T09:04:30;98517.34;;;23.03;52.32
47785;BME280;35233;55.686;37.848;2023-07-20T09:06:57;98512.81;;;23.03;52.48
47785;BME280;35233;55.686;37.848;2023-07-20T09:09:22;98518.78;;;23.07;52.49
47785;BME280;35233;55.686;37.848;2023-07-20T09:11:51;98519.38;;;22.91;52.16
47785;BME280;35233;55.686;37.848;2023-07-20T09:14:21;98525.47;;;22.93;52.54
47785;BME280;35233;55.686;37.848;2023-07-20T09:16:56;98529.56;;;22.97;52.54
47785;BME280;35233;55.686;37.848;2023-07-20T09:19:25;98529.06;;;23.12;52.42
47785;BME280;35233;55.686;37.848;2023-07-20T09:21:52;98525.47;;;23.21;52.07
47785;BME280;35233;55.686;37.848;2023-07-20T09:24:18;98516.75;;;23.09;52.35
47785;BME280;35233;55.686;37.848;2023-07-20T09:26:47;98529.16;;;22.92;52.85
47785;BME280;35233;55.686;37.848;2023-07-20T09:29:19;98530.16;;;23.01;52.78
47785;BME280;35233;55.686;37.848;2023-07-20T09:32:07;98532.72;;;22.93;52.83
47785;BME280;35233;55.686;37.848;2023-07-20T09:34:34;98529.06;;;22.84;53.13
47785;BME280;35233;55.686;37.848;2023-07-20T09:37:00;98530.31;;;22.90;52.96
47785;BME280;35233;55.686;37.848;2023-07-20T09:39:26;98537.16;;;23.12;52.64
47785;BME280;35233;55.686;37.848;2023-07-20T09:41:52;98535.06;;;23.33;50.84
47785;BME280;35233;55.686;37.848;2023-07-20T09:44:19;98526.16;;;23.86;47.86
47785;BME280;35233;55.686;37.848;2023-07-20T09:46:49;98523.66;;;24.11;46.71
47785;BME280;35233;55.686;37.848;2023-07-20T09:49:16;98525.72;;;24.17;46.53
47785;BME280;35233;55.686;37.848;2023-07-20T09:51:43;98516.75;;;24.34;46.49
47785;BME280;35233;55.686;37.848;2023-07-20T09:54:10;98516.72;;;24.26;46.25
47785;BME280;35233;55.686;37.848;2023-07-20T09:56:37;98517.94;;;24.32;46.08
47785;BME280;35233;55.686;37.848;2023-07-20T09:59:04;98544.91;;;24.50;46.45
47785;BME280;35233;55.686;37.848;2023-07-20T10:01:29;98538.41;;;24.69;46.51
47785;BME280;35233;55.686;37.848;2023-07-20T10:03:58;98523.75;;;24.71;46.76
47785;BME280;35233;55.686;37.848;2023-07-20T10:06:28;98532.59;;;24.81;46.83
47785;BME280;35233;55.686;37.848;2023-07-20T10:08:56;98535.56;;;24.70;46.92
47785;BME280;35233;55.686;37.848;2023-07-20T10:11:26;98534.50;;;24.63;47.44
47785;BME280;35233;55.686;37.848;2023-07-20T10:13:58;98538.75;;;24.66;47.25
47785;BME280;35233;55.686;37.848;2023-07-20T10:16:40;98543.63;;;24.62;47.76
47785;BME280;35233;55.686;37.848;2023-07-20T10:19:25;98551.69;;;24.36;47.71
47785;BME280;35233;55.686;37.848;2023-07-20T10:22:06;98561.69;;;24.17;48.09
47785;BME280;35233;55.686;37.848;2023-07-20T10:24:34;98553.22;;;23.94;48.14
47785;BME280;35233;55.686;37.848;2023-07-20T10:27:00;98572.03;;;23.86;48.37
47785;BME280;35233;55.686;37.848;2023-07-20T10:29:27;98575.66;;;23.67;49.04
47785;BME280;35233;55.686;37.848;2023-07-20T10:31:55;98590.28;;;23.65;48.85
47785;BME280;35233;55.686;37.848;2023-07-20T10:34:21;98586.88;;;23.72;48.53
47785;BME280;35233;55.686;37.848;2023-07-20T10:36:48;98577.41;;;23.86;47.80
47785;BME280;35233;55.686;37.848;2023-07-20T10:41:50;98560.22;;;24.23;47.09
47785;BME280;35233;55.686;37.848;2023-07-20T10:44:24;98566.19;;;24.35;46.83
47785;BME280;35233;55.686;37.848;2023-07-20T10:46:50;98567.34;;;24.32;47.16
47785;BME280;35233;55.686;37.848;2023-07-20T10:49:23;98551.19;;;24.14;47.38
47785;BME280;35233;55.686;37.848;2023-07-20T10:51:57;98575.22;;;24.26;47.12
47785;BME280;35233;55.686;37.848;2023-07-20T10:56:52;98566.75;;;24.21;47.55
47785;BME280;35233;55.686;37.848;2023-07-20T10:59:41;98567.81;;;24.28;46.99
47785;BME280;35233;55.686;37.848;2023-07-20T11:02:07;98563.19;;;24.38;47.08
47785;BME280;35233;55.686;37.848;2023-07-20T11:04:43;98553.78;;;24.24;47.34
47785;BME280;35233;55.686;37.848;2023-07-20T11:07:09;98555.13;;;24.02;47.93
47785;BME280;35233;55.686;37.848;2023-07-20T11:09:36;98561.22;;;23.86;48.25
47785;BME280;35233;55.686;37.848;2023-07-20T11:12:16;98556.78;;;23.77;48.40
47785;BME280;35233;55.686;37.848;2023-07-20T11:14:44;98555.38;;;23.73;48.72
47785;BME280;35233;55.686;37.848;2023-07-20T11:17:18;98552.28;;;23.68;48.67
47785;BME280;35233;55.686;37.848;2023-07-20T11:19:49;98551.19;;;23.61;48.89
47785;BME280;35233;55.686;37.848;2023-07-20T11:22:17;98548.69;;;23.49;48.99
47785;BME280;35233;55.686;37.848;2023-07-20T11:24:43;98565.03;;;23.48;49.45
47785;BME280;35233;55.686;37.848;2023-07-20T11:27:08;98569.31;;;23.41;49.50
47785;BME280;35233;55.686;37.848;2023-07-20T11:29:35;98579.03;;;23.34;49.87
47785;BME280;35233;55.686;37.848;2023-07-20T11:32:02;98584.84;;;23.29;49.77
47785;BME280;35233;55.686;37.848;2023-07-20T11:34:30;98612.41;;;23.23;50.07
47785;BME280;35233;55.686;37.848;2023-07-20T11:36:57;98616.41;;;23.19;50.10
47785;BME280;35233;55.686;37.848;2023-07-20T11:39:23;98614.31;;;23.13;50.37
47785;BME280;35233;55.686;37.848;2023-07-20T11:41:55;98630.00;;;23.17;50.12
47785;BME280;35233;55.686;37.848;2023-07-20T11:44:23;98625.34;;;23.19;50.29
47785;BME280;35233;55.686;37.848;2023-07-20T11:47:04;98618.91;;;23.30;49.96
47785;BME280;35233;55.686;37.848;2023-07-20T11:49:35;98598.22;;;23.48;49.68
47785;BME280;35233;55.686;37.848;2023-07-20T11:52:01;98598.50;;;23.73;49.24
47785;BME280;35233;55.686;37.848;2023-07-20T11:54:27;98592.13;;;23.92;48.66
47785;BME280;35233;55.686;37.848;2023-07-20T11:56:54;98601.81;;;24.03;48.27
47785;BME280;35233;55.686;37.848;2023-07-20T11:59:20;98589.25;;;24.11;48.23
47785;BME280;35233;55.686;37.848;2023-07-20T12:01:46;98586.50;;;24.21;48.34
47785;BME280;35233;55.686;37.848;2023-07-20T12:04:22;98589.50;;;24.18;48.06
47785;BME280;35233;55.686;37.848;2023-07-20T12:06:48;98584.44;;;24.15;48.09
47785;BME280;35233;55.686;37.848;2023-07-20T12:09:16;98571.78;;;23.98;48.64
47785;BME280;35233;55.686;37.848;2023-07-20T12:11:43;98584.88;;;23.92;48.87
47785;BME280;35233;55.686;37.848;2023-07-20T12:14:10;98578.25;;;23.87;48.80
47785;BME280;35233;55.686;37.848;2023-07-20T12:16:37;98588.66;;;23.82;49.00
47785;BME280;35233;55.686;37.848;2023-07-20T12:19:11;98588.44;;;23.75;49.56
47785;BME280;35233;55.686;37.848;2023-07-20T12:21:38;98593.97;;;23.73;49.77
47785;BME280;35233;55.686;37.848;2023-07-20T12:24:04;98594.00;;;23.64;50.32
47785;BME280;35233;55.686;37.848;2023-07-20T12:26:31;98599.00;;;23.59;50.71
47785;BME280;35233;55.686;37.848;2023-07-20T12:28:57;98599.56;;;23.62;50.31
47785;BME280;35233;55.686;37.848;2023-07-20T12:31:23;98604.75;;;23.73;50.37
47785;BME280;35233;55.686;37.848;2023-07-20T12:33:53;98599.00;;;23.86;50.04
47785;BME280;35233;55.686;37.848;2023-07-20T12:36:21;98601.38;;;23.89;50.18
47785;BME280;35233;55.686;37.848;2023-07-20T12:38:46;98592.06;;;23.84;50.09
47785;BME280;35233;55.686;37.848;2023-07-20T12:41:13;98592.19;;;23.82;50.40
47785;BME280;35233;55.686;37.848;2023-07-20T12:43:40;98593.91;;;23.83;50.63
47785;BME280;35233;55.686;37.848;2023-07-20T12:46:06;98601.16;;;23.83;50.43
47785;BME280;35233;55.686;37.848;2023-07-20T12:48:32;98590.91;;;23.86;50.12
47785;BME280;35233;55.686;37.848;2023-07-20T12:50:58;98586.88;;;23.90;50.10
47785;BME280;35233;55.686;37.848;2023-07-20T12:53:24;98588.22;;;23.86;50.18
47785;BME280;35233;55.686;37.848;2023-07-20T12:55:49;98602.13;;;24.00;49.93
47785;BME280;35233;55.686;37.848;2023-07-20T12:58:15;98582.59;;;23.98;49.87
47785;BME280;35233;55.686;37.848;2023-07-20T13:00:40;98601.06;;;24.10;49.81
47785;BME280;35233;55.686;37.848;2023-07-20T13:03:14;98596.91;;;24.16;49.79